sensor_id;sensor_type;location;lat;lon;timestamp;temperature;humidity
35043;DHT22;21230;51.170;17.024;2023-06-26T00:02:16;16.50;99.90
35043;DHT22;21230;51.170;17.024;2023-06-26T00:04:42;16.40;99.90
35043;DHT22;21230;51.170;17.024;2023-06-26T00:07:08;16.40;99.90
35043;DHT22;21230;51.170;17.024;2023-06-26T00:09:33;16.40;99.90
35043;DHT22;21230;51.170;17.024;2023-06-26T00:11:59;16.30;99.90
35043;DHT22;21230;51.170;17.024;2023-06-26T00:14:25;16.30;99.90
35043;DHT22;21230;51.170;17.024;2023-06-26T00:16:51;16.20;99.90
35043;DHT22;21230;51.170;17.024;2023-06-26T00:19:17;16.10;99.90
35043;DHT22;21230;51.170;17.024;2023-06-26T00:21:42;16.10;99.90
35043;DHT22;21230;51.170;17.024;2023-06-26T00:24:13;16.10;99.90
35043;DHT22;21230;51.170;17.024;2023-06-26T00:26:39;16.10;99.90
35043;DHT22;21230;51.170;17.024;2023-06-26T00:29:04;16.10;99.90
35043;DHT22;21230;51.170;17.024;2023-06-26T00:31:30;16.10;99.90
35043;DHT22;21230;51.170;17.024;2023-06-26T00:33:56;16.10;99.90
35043;DHT22;21230;51.170;17.024;2023-06-26T00:36:21;16.10;99.90
35043;DHT22;21230;51.170;17.024;2023-06-26T00:38:49;16.10;99.90
35043;DHT22;21230;51.170;17.024;2023-06-26T00:41:15;16.10;99.90
35043;DHT22;21230;51.170;17.024;2023-06-26T00:43:40;16.10;99.90
35043;DHT22;21230;51.170;17.024;2023-06-26T00:46:08;16.10;99.90
35043;DHT22;21230;51.170;17.024;2023-06-26T00:48:34;16.10;99.90
35043;DHT22;21230;51.170;17.024;2023-06-26T00:50:59;16.10;99.90
35043;DHT22;21230;51.170;17.024;2023-06-26T00:53:25;16.00;99.90
35043;DHT22;21230;51.170;17.024;2023-06-26T00:55:50;16.00;99.90
35043;DHT22;21230;51.170;17.024;2023-06-26T00:58:16;15.90;99.90
35043;DHT22;21230;51.170;17.024;2023-06-26T01:00:42;15.90;99.90
35043;DHT22;21230;51.170;17.024;2023-06-26T01:03:11;15.90;99.90
35043;DHT22;21230;51.170;17.024;2023-06-26T01:05:37;15.80;99.90
35043;DHT22;21230;51.170;17.024;2023-06-26T01:08:03;15.70;99.90
35043;DHT22;21230;51.170;17.024;2023-06-26T01:10:30;15.70;99.90
35043;DHT22;21230;51.170;17.024;2023-06-26T01:12:56;15.60;99.90
35043;DHT22;21230;51.170;17.024;2023-06-26T01:15:22;15.60;99.90
35043;DHT22;21230;51.170;17.024;2023-06-26T01:17:48;15.50;99.90
35043;DHT22;21230;51.170;17.024;2023-06-26T01:20:14;15.50;99.90
35043;DHT22;21230;51.170;17.024;2023-06-26T01:28:07;15.50;99.90
35043;DHT22;21230;51.170;17.024;2023-06-26T01:30:37;15.50;99.90
35043;DHT22;21230;51.170;17.024;2023-06-26T01:33:03;15.50;99.90
35043;DHT22;21230;51.170;17.024;2023-06-26T01:35:29;15.50;99.90
35043;DHT22;21230;51.170;17.024;2023-06-26T01:38:11;15.50;99.90
35043;DHT22;21230;51.170;17.024;2023-06-26T01:40:36;15.50;99.90
35043;DHT22;21230;51.170;17.024;2023-06-26T01:43:02;15.50;99.90
35043;DHT22;21230;51.170;17.024;2023-06-26T01:45:28;15.50;99.90
35043;DHT22;21230;51.170;17.024;2023-06-26T01:47:55;15.50;99.90
35043;DHT22;21230;51.170;17.024;2023-06-26T01:50:22;15.50;99.90
35043;DHT22;21230;51.170;17.024;2023-06-26T01:52:53;15.40;99.90
35043;DHT22;21230;51.170;17.024;2023-06-26T01:55:31;15.40;99.90
35043;DHT22;21230;51.170;17.024;2023-06-26T01:58:01;15.40;99.90
35043;DHT22;21230;51.170;17.024;2023-06-26T02:00:27;15.40;99.90
35043;DHT22;21230;51.170;17.024;2023-06-26T02:02:53;15.30;99.90
35043;DHT22;21230;51.170;17.024;2023-06-26T02:05:18;15.30;99.90
35043;DHT22;21230;51.170;17.024;2023-06-26T02:07:44;15.30;99.90
35043;DHT22;21230;51.170;17.024;2023-06-26T02:10:10;15.20;99.90
35043;DHT22;21230;51.170;17.024;2023-06-26T02:12:36;15.20;99.90
35043;DHT22;21230;51.170;17.024;2023-06-26T02:15:02;15.10;99.90
35043;DHT22;21230;51.170;17.024;2023-06-26T02:17:27;15.00;99.90
35043;DHT22;21230;51.170;17.024;2023-06-26T02:19:53;15.00;99.90
35043;DHT22;21230;51.170;17.024;2023-06-26T02:22:19;15.00;99.90
35043;DHT22;21230;51.170;17.024;2023-06-26T02:24:44;15.00;99.90
35043;DHT22;21230;51.170;17.024;2023-06-26T02:27:10;15.00;99.90
35043;DHT22;21230;51.170;17.024;2023-06-26T02:29:36;15.00;99.90
35043;DHT22;21230;51.170;17.024;2023-06-26T02:32:02;15.10;99.90
35043;DHT22;21230;51.170;17.024;2023-06-26T02:34:27;15.10;99.90
35043;DHT22;21230;51.170;17.024;2023-06-26T02:36:53;15.10;99.90
35043;DHT22;21230;51.170;17.024;2023-06-26T02:39:21;15.10;99.90
35043;DHT22;21230;51.170;17.024;2023-06-26T02:41:47;15.10;99.90
35043;DHT22;21230;51.170;17.024;2023-06-26T02:44:13;15.10;99.90
35043;DHT22;21230;51.170;17.024;2023-06-26T02:46:39;15.10;99.90
35043;DHT22;21230;51.170;17.024;2023-06-26T02:49:06;15.10;99.90
35043;DHT22;21230;51.170;17.024;2023-06-26T02:51:32;15.10;99.90
35043;DHT22;21230;51.170;17.024;2023-06-26T02:53:58;15.10;99.90
35043;DHT22;21230;51.170;17.024;2023-06-26T02:56:24;15.10;99.90
35043;DHT22;21230;51.170;17.024;2023-06-26T02:58:49;15.20;99.90
35043;DHT22;21230;51.170;17.024;2023-06-26T03:01:15;15.20;99.90
35043;DHT22;21230;51.170;17.024;2023-06-26T03:03:41;15.20;99.90
35043;DHT22;21230;51.170;17.024;2023-06-26T03:06:07;15.20;99.90
35043;DHT22;21230;51.170;17.024;2023-06-26T03:08:33;15.20;99.90
35043;DHT22;21230;51.170;17.024;2023-06-26T03:10:58;15.20;99.90
35043;DHT22;21230;51.170;17.024;2023-06-26T03:13:24;15.20;99.90
35043;DHT22;21230;51.170;17.024;2023-06-26T03:15:50;15.20;99.90
35043;DHT22;21230;51.170;17.024;2023-06-26T03:18:15;15.20;99.90
35043;DHT22;21230;51.170;17.024;2023-06-26T03:20:41;15.30;99.90
35043;DHT22;21230;51.170;17.024;2023-06-26T03:23:07;15.40;99.90
35043;DHT22;21230;51.170;17.024;2023-06-26T03:25:32;15.50;99.90
35043;DHT22;21230;51.170;17.024;2023-06-26T03:27:58;15.50;99.90
35043;DHT22;21230;51.170;17.024;2023-06-26T03:30:23;15.60;99.90
35043;DHT22;21230;51.170;17.024;2023-06-26T03:32:49;15.60;99.90
35043;DHT22;21230;51.170;17.024;2023-06-26T03:35:15;15.70;99.90
35043;DHT22;21230;51.170;17.024;2023-06-26T03:37:40;15.70;99.90
35043;DHT22;21230;51.170;17.024;2023-06-26T03:40:06;15.80;99.90
35043;DHT22;21230;51.170;17.024;2023-06-26T03:42:32;15.90;99.90
35043;DHT22;21230;51.170;17.024;2023-06-26T03:44:58;16.00;99.90
35043;DHT22;21230;51.170;17.024;2023-06-26T03:47:23;16.10;99.90
35043;DHT22;21230;51.170;17.024;2023-06-26T03:49:49;16.20;99.90
35043;DHT22;21230;51.170;17.024;2023-06-26T03:52:14;16.30;99.90
35043;DHT22;21230;51.170;17.024;2023-06-26T03:54:40;16.40;99.90
35043;DHT22;21230;51.170;17.024;2023-06-26T03:57:06;16.50;99.90
35043;DHT22;21230;51.170;17.024;2023-06-26T03:59:32;16.60;99.90
35043;DHT22;21230;51.170;17.024;2023-06-26T04:01:58;16.70;99.90
35043;DHT22;21230;51.170;17.024;2023-06-26T04:04:24;16.80;99.90
35043;DHT22;21230;51.170;17.024;2023-06-26T04:06:49;16.90;99.90
35043;DHT22;21230;51.170;17.024;2023-06-26T04:09:16;17.00;99.90
35043;DHT22;21230;51.170;17.024;2023-06-26T04:11:41;17.10;99.90
35043;DHT22;21230;51.170;17.024;2023-06-26T04:14:07;17.20;99.90
35043;DHT22;21230;51.170;17.024;2023-06-26T04:16:33;17.20;99.90
35043;DHT22;21230;51.170;17.024;2023-06-26T04:18:58;17.30;99.90
35043;DHT22;21230;51.170;17.024;2023-06-26T04:21:24;17.40;99.90
35043;DHT22;21230;51.170;17.024;2023-06-26T04:23:50;17.50;99.90
35043;DHT22;21230;51.170;17.024;2023-06-26T04:26:15;17.60;99.90
35043;DHT22;21230;51.170;17.024;2023-06-26T04:28:41;17.60;99.90
35043;DHT22;21230;51.170;17.024;2023-06-26T04:31:07;17.70;99.90
35043;DHT22;21230;51.170;17.024;2023-06-26T04:33:34;17.70;99.90
35043;DHT22;21230;51.170;17.024;2023-06-26T04:36:02;17.80;99.90
35043;DHT22;21230;51.170;17.024;2023-06-26T04:38:29;17.90;99.90
35043;DHT22;21230;51.170;17.024;2023-06-26T04:40:55;17.90;99.90
35043;DHT22;21230;51.170;17.024;2023-06-26T04:43:20;18.00;99.90
35043;DHT22;21230;51.170;17.024;2023-06-26T04:45:46;18.00;99.90
35043;DHT22;21230;51.170;17.024;2023-06-26T04:48:11;18.00;99.90
35043;DHT22;21230;51.170;17.024;2023-06-26T04:50:37;18.10;99.90
35043;DHT22;21230;51.170;17.024;2023-06-26T04:53:02;18.10;99.90
35043;DHT22;21230;51.170;17.024;2023-06-26T04:55:29;18.30;99.90
35043;DHT22;21230;51.170;17.024;2023-06-26T04:57:55;18.30;99.90
35043;DHT22;21230;51.170;17.024;2023-06-26T05:00:21;18.30;99.90
35043;DHT22;21230;51.170;17.024;2023-06-26T05:02:47;18.40;99.90
35043;DHT22;21230;51.170;17.024;2023-06-26T05:05:13;18.40;99.90
35043;DHT22;21230;51.170;17.024;2023-06-26T05:07:40;18.50;99.90
35043;DHT22;21230;51.170;17.024;2023-06-26T05:10:06;18.60;99.90
35043;DHT22;21230;51.170;17.024;2023-06-26T05:12:33;18.70;99.90
35043;DHT22;21230;51.170;17.024;2023-06-26T05:14:58;18.70;99.90
35043;DHT22;21230;51.170;17.024;2023-06-26T05:17:24;18.80;99.90
35043;DHT22;21230;51.170;17.024;2023-06-26T05:19:49;18.90;99.90
35043;DHT22;21230;51.170;17.024;2023-06-26T05:22:16;19.00;99.90
35043;DHT22;21230;51.170;17.024;2023-06-26T05:24:42;19.10;99.90
35043;DHT22;21230;51.170;17.024;2023-06-26T05:27:08;19.20;99.90
35043;DHT22;21230;51.170;17.024;2023-06-26T05:29:34;19.30;99.90
35043;DHT22;21230;51.170;17.024;2023-06-26T05:32:00;19.30;99.90
35043;DHT22;21230;51.170;17.024;2023-06-26T05:34:26;19.40;99.90
35043;DHT22;21230;51.170;17.024;2023-06-26T05:36:58;19.50;99.90
35043;DHT22;21230;51.170;17.024;2023-06-26T05:39:26;19.60;99.90
35043;DHT22;21230;51.170;17.024;2023-06-26T05:41:52;19.70;99.90
35043;DHT22;21230;51.170;17.024;2023-06-26T05:44:18;19.90;99.90
35043;DHT22;21230;51.170;17.024;2023-06-26T05:46:43;20.00;99.90
35043;DHT22;21230;51.170;17.024;2023-06-26T05:49:09;20.00;99.90
35043;DHT22;21230;51.170;17.024;2023-06-26T05:51:35;20.10;99.90
35043;DHT22;21230;51.170;17.024;2023-06-26T05:54:01;20.30;99.90
35043;DHT22;21230;51.170;17.024;2023-06-26T05:56:26;20.30;99.90
35043;DHT22;21230;51.170;17.024;2023-06-26T05:58:52;20.40;99.90
35043;DHT22;21230;51.170;17.024;2023-06-26T06:01:18;20.40;99.90
35043;DHT22;21230;51.170;17.024;2023-06-26T06:03:45;20.50;99.90
35043;DHT22;21230;51.170;17.024;2023-06-26T06:06:11;20.60;99.90
35043;DHT22;21230;51.170;17.024;2023-06-26T06:08:36;20.80;99.90
35043;DHT22;21230;51.170;17.024;2023-06-26T06:11:02;20.90;99.90
35043;DHT22;21230;51.170;17.024;2023-06-26T06:13:28;20.90;99.90
35043;DHT22;21230;51.170;17.024;2023-06-26T06:15:54;20.90;99.90
35043;DHT22;21230;51.170;17.024;2023-06-26T06:18:20;21.10;99.90
35043;DHT22;21230;51.170;17.024;2023-06-26T06:20:46;21.10;99.90
35043;DHT22;21230;51.170;17.024;2023-06-26T06:23:12;21.20;99.90
35043;DHT22;21230;51.170;17.024;2023-06-26T06:25:37;21.30;99.90
35043;DHT22;21230;51.170;17.024;2023-06-26T06:28:04;21.40;99.90
35043;DHT22;21230;51.170;17.024;2023-06-26T06:30:29;21.40;99.90
35043;DHT22;21230;51.170;17.024;2023-06-26T06:32:55;21.50;99.90
35043;DHT22;21230;51.170;17.024;2023-06-26T06:35:21;21.50;99.90
35043;DHT22;21230;51.170;17.024;2023-06-26T06:37:46;21.50;99.90
35043;DHT22;21230;51.170;17.024;2023-06-26T06:40:12;21.60;99.90
35043;DHT22;21230;51.170;17.024;2023-06-26T06:42:38;21.80;99.90
35043;DHT22;21230;51.170;17.024;2023-06-26T06:45:04;21.90;99.90
35043;DHT22;21230;51.170;17.024;2023-06-26T06:47:31;22.10;99.90
35043;DHT22;21230;51.170;17.024;2023-06-26T06:49:57;22.20;99.90
35043;DHT22;21230;51.170;17.024;2023-06-26T06:52:22;22.30;99.90
35043;DHT22;21230;51.170;17.024;2023-06-26T06:54:52;22.40;99.90
35043;DHT22;21230;51.170;17.024;2023-06-26T06:57:18;22.50;99.90
35043;DHT22;21230;51.170;17.024;2023-06-26T06:59:44;22.50;99.90
35043;DHT22;21230;51.170;17.024;2023-06-26T07:02:09;22.50;99.90
35043;DHT22;21230;51.170;17.024;2023-06-26T07:04:35;22.60;99.90
35043;DHT22;21230;51.170;17.024;2023-06-26T07:07:01;22.60;99.90
35043;DHT22;21230;51.170;17.024;2023-06-26T07:09:26;22.70;99.90
35043;DHT22;21230;51.170;17.024;2023-06-26T07:11:52;22.80;99.90
35043;DHT22;21230;51.170;17.024;2023-06-26T07:14:17;22.80;99.90
35043;DHT22;21230;51.170;17.024;2023-06-26T07:16:43;22.90;99.90
35043;DHT22;21230;51.170;17.024;2023-06-26T07:19:09;22.90;99.90
35043;DHT22;21230;51.170;17.024;2023-06-26T07:21:35;23.10;99.90
35043;DHT22;21230;51.170;17.024;2023-06-26T07:24:00;23.10;99.90
35043;DHT22;21230;51.170;17.024;2023-06-26T07:26:26;23.20;99.90
35043;DHT22;21230;51.170;17.024;2023-06-26T07:28:51;23.30;99.90
35043;DHT22;21230;51.170;17.024;2023-06-26T07:31:17;23.30;99.90
35043;DHT22;21230;51.170;17.024;2023-06-26T07:33:43;23.20;97.00
35043;DHT22;21230;51.170;17.024;2023-06-26T07:36:08;23.40;98.60
35043;DHT22;21230;51.170;17.024;2023-06-26T07:38:34;23.50;99.90
35043;DHT22;21230;51.170;17.024;2023-06-26T07:41:00;23.50;97.10
35043;DHT22;21230;51.170;17.024;2023-06-26T07:43:25;23.70;97.40
35043;DHT22;21230;51.170;17.024;2023-06-26T07:45:51;23.80;99.90
35043;DHT22;21230;51.170;17.024;2023-06-26T07:48:18;24.00;97.30
35043;DHT22;21230;51.170;17.024;2023-06-26T07:50:44;24.20;94.90
35043;DHT22;21230;51.170;17.024;2023-06-26T07:53:10;24.20;92.50
35043;DHT22;21230;51.170;17.024;2023-06-26T07:55:35;24.10;85.90
35043;DHT22;21230;51.170;17.024;2023-06-26T07:58:01;24.20;91.20
35043;DHT22;21230;51.170;17.024;2023-06-26T08:00:26;24.20;89.60
35043;DHT22;21230;51.170;17.024;2023-06-26T08:02:52;24.30;89.70
35043;DHT22;21230;51.170;17.024;2023-06-26T08:05:18;24.40;89.60
35043;DHT22;21230;51.170;17.024;2023-06-26T08:07:43;24.60;91.50
35043;DHT22;21230;51.170;17.024;2023-06-26T08:10:09;24.70;84.00
35043;DHT22;21230;51.170;17.024;2023-06-26T08:12:35;24.90;78.00
35043;DHT22;21230;51.170;17.024;2023-06-26T08:15:02;24.90;70.60
35043;DHT22;21230;51.170;17.024;2023-06-26T08:17:28;25.00;68.80
35043;DHT22;21230;51.170;17.024;2023-06-26T08:19:54;25.10;68.80
35043;DHT22;21230;51.170;17.024;2023-06-26T08:22:19;25.20;64.10
35043;DHT22;21230;51.170;17.024;2023-06-26T08:24:45;25.10;61.10
35043;DHT22;21230;51.170;17.024;2023-06-26T08:27:10;25.10;64.60
35043;DHT22;21230;51.170;17.024;2023-06-26T08:29:36;25.00;58.90
35043;DHT22;21230;51.170;17.024;2023-06-26T08:32:02;25.00;62.10
35043;DHT22;21230;51.170;17.024;2023-06-26T08:34:27;25.00;57.30
35043;DHT22;21230;51.170;17.024;2023-06-26T08:36:53;25.20;62.90
35043;DHT22;21230;51.170;17.024;2023-06-26T08:39:19;25.40;62.50
35043;DHT22;21230;51.170;17.024;2023-06-26T08:41:44;25.50;57.60
35043;DHT22;21230;51.170;17.024;2023-06-26T08:44:10;25.60;58.50
35043;DHT22;21230;51.170;17.024;2023-06-26T08:46:36;25.70;56.90
35043;DHT22;21230;51.170;17.024;2023-06-26T08:49:05;25.60;48.20
35043;DHT22;21230;51.170;17.024;2023-06-26T08:51:34;25.60;45.90
35043;DHT22;21230;51.170;17.024;2023-06-26T08:54:01;25.70;50.30
35043;DHT22;21230;51.170;17.024;2023-06-26T08:56:29;25.80;49.70
35043;DHT22;21230;51.170;17.024;2023-06-26T08:58:57;25.90;50.80
35043;DHT22;21230;51.170;17.024;2023-06-26T09:01:22;25.50;44.90
35043;DHT22;21230;51.170;17.024;2023-06-26T09:03:49;25.50;45.80
35043;DHT22;21230;51.170;17.024;2023-06-26T09:06:15;25.70;54.70
35043;DHT22;21230;51.170;17.024;2023-06-26T09:08:43;25.80;50.80
35043;DHT22;21230;51.170;17.024;2023-06-26T09:11:09;25.90;47.40
35043;DHT22;21230;51.170;17.024;2023-06-26T09:13:34;26.10;45.70
35043;DHT22;21230;51.170;17.024;2023-06-26T09:16:04;26.20;43.10
35043;DHT22;21230;51.170;17.024;2023-06-26T09:18:30;26.30;41.30
35043;DHT22;21230;51.170;17.024;2023-06-26T09:20:56;26.40;43.20
35043;DHT22;21230;51.170;17.024;2023-06-26T09:23:22;26.50;40.10
35043;DHT22;21230;51.170;17.024;2023-06-26T09:25:48;26.70;38.30
35043;DHT22;21230;51.170;17.024;2023-06-26T09:28:16;26.70;40.60
35043;DHT22;21230;51.170;17.024;2023-06-26T09:30:41;26.70;36.60
35043;DHT22;21230;51.170;17.024;2023-06-26T09:33:14;26.80;38.50
35043;DHT22;21230;51.170;17.024;2023-06-26T09:35:39;26.90;37.60
35043;DHT22;21230;51.170;17.024;2023-06-26T09:38:05;26.60;36.50
35043;DHT22;21230;51.170;17.024;2023-06-26T09:40:31;26.70;38.50
35043;DHT22;21230;51.170;17.024;2023-06-26T09:43:06;26.90;34.60
35043;DHT22;21230;51.170;17.024;2023-06-26T09:45:35;26.90;31.40
35043;DHT22;21230;51.170;17.024;2023-06-26T09:48:04;26.90;38.10
35043;DHT22;21230;51.170;17.024;2023-06-26T09:50:32;27.00;34.50
35043;DHT22;21230;51.170;17.024;2023-06-26T09:53:08;26.90;30.20
35043;DHT22;21230;51.170;17.024;2023-06-26T09:55:39;26.90;30.20
35043;DHT22;21230;51.170;17.024;2023-06-26T09:58:05;26.90;37.30
35043;DHT22;21230;51.170;17.024;2023-06-26T10:00:31;26.90;39.80
35043;DHT22;21230;51.170;17.024;2023-06-26T10:02:57;27.00;42.50
35043;DHT22;21230;51.170;17.024;2023-06-26T10:05:23;27.10;40.10
35043;DHT22;21230;51.170;17.024;2023-06-26T10:07:49;27.20;39.80
35043;DHT22;21230;51.170;17.024;2023-06-26T10:10:15;27.30;38.40
35043;DHT22;21230;51.170;17.024;2023-06-26T10:12:41;27.40;38.00
35043;DHT22;21230;51.170;17.024;2023-06-26T10:15:10;27.50;37.00
35043;DHT22;21230;51.170;17.024;2023-06-26T10:17:37;27.50;37.80
35043;DHT22;21230;51.170;17.024;2023-06-26T10:20:04;27.60;37.70
35043;DHT22;21230;51.170;17.024;2023-06-26T10:22:36;27.70;36.90
35043;DHT22;21230;51.170;17.024;2023-06-26T10:25:02;27.70;32.90
35043;DHT22;21230;51.170;17.024;2023-06-26T10:27:37;27.60;33.60
35043;DHT22;21230;51.170;17.024;2023-06-26T10:30:04;27.80;37.30
35043;DHT22;21230;51.170;17.024;2023-06-26T10:32:32;27.80;33.30
35043;DHT22;21230;51.170;17.024;2023-06-26T10:34:58;27.80;34.80
35043;DHT22;21230;51.170;17.024;2023-06-26T10:37:43;27.90;32.30
35043;DHT22;21230;51.170;17.024;2023-06-26T10:40:12;27.60;28.90
35043;DHT22;21230;51.170;17.024;2023-06-26T10:42:39;27.50;31.00
35043;DHT22;21230;51.170;17.024;2023-06-26T10:45:13;27.70;32.80
35043;DHT22;21230;51.170;17.024;2023-06-26T10:47:39;27.80;31.70
35043;DHT22;21230;51.170;17.024;2023-06-26T10:56:04;28.00;32.40
35043;DHT22;21230;51.170;17.024;2023-06-26T11:03:36;28.00;36.30
35043;DHT22;21230;51.170;17.024;2023-06-26T11:06:11;28.00;33.70
35043;DHT22;21230;51.170;17.024;2023-06-26T11:08:44;28.20;36.30
35043;DHT22;21230;51.170;17.024;2023-06-26T11:11:10;28.30;33.90
35043;DHT22;21230;51.170;17.024;2023-06-26T11:13:35;28.50;32.90
35043;DHT22;21230;51.170;17.024;2023-06-26T11:16:01;28.50;32.60
35043;DHT22;21230;51.170;17.024;2023-06-26T11:18:27;28.60;32.20
35043;DHT22;21230;51.170;17.024;2023-06-26T11:20:53;28.70;31.70
35043;DHT22;21230;51.170;17.024;2023-06-26T11:23:19;28.70;32.30
35043;DHT22;21230;51.170;17.024;2023-06-26T11:25:47;28.80;32.80
35043;DHT22;21230;51.170;17.024;2023-06-26T11:28:13;28.80;34.20
35043;DHT22;21230;51.170;17.024;2023-06-26T11:30:39;28.70;31.00
35043;DHT22;21230;51.170;17.024;2023-06-26T11:33:07;28.70;31.30
35043;DHT22;21230;51.170;17.024;2023-06-26T11:35:33;28.70;32.40
35043;DHT22;21230;51.170;17.024;2023-06-26T11:37:59;28.70;30.00
35043;DHT22;21230;51.170;17.024;2023-06-26T11:40:29;28.60;30.10
35043;DHT22;21230;51.170;17.024;2023-06-26T11:43:02;28.70;29.70
35043;DHT22;21230;51.170;17.024;2023-06-26T11:45:29;28.70;31.20
35043;DHT22;21230;51.170;17.024;2023-06-26T11:47:56;28.50;27.30
35043;DHT22;21230;51.170;17.024;2023-06-26T11:50:22;28.20;28.10
35043;DHT22;21230;51.170;17.024;2023-06-26T11:52:54;28.00;30.00
35043;DHT22;21230;51.170;17.024;2023-06-26T11:55:21;28.20;30.00
35043;DHT22;21230;51.170;17.024;2023-06-26T11:57:50;28.30;31.50
35043;DHT22;21230;51.170;17.024;2023-06-26T12:00:16;28.50;29.80
35043;DHT22;21230;51.170;17.024;2023-06-26T12:02:43;28.50;29.40
35043;DHT22;21230;51.170;17.024;2023-06-26T12:05:09;28.50;29.40
35043;DHT22;21230;51.170;17.024;2023-06-26T12:07:35;28.60;28.50
35043;DHT22;21230;51.170;17.024;2023-06-26T12:10:02;28.50;27.10
35043;DHT22;21230;51.170;17.024;2023-06-26T12:12:29;28.60;29.20
35043;DHT22;21230;51.170;17.024;2023-06-26T12:14:55;28.50;27.20
35043;DHT22;21230;51.170;17.024;2023-06-26T12:17:22;28.40;29.70
35043;DHT22;21230;51.170;17.024;2023-06-26T12:19:48;28.40;29.90
35043;DHT22;21230;51.170;17.024;2023-06-26T12:22:14;28.50;28.20
35043;DHT22;21230;51.170;17.024;2023-06-26T12:24:39;28.60;30.40
35043;DHT22;21230;51.170;17.024;2023-06-26T12:27:09;28.60;30.00
35043;DHT22;21230;51.170;17.024;2023-06-26T12:29:35;28.70;28.60
35043;DHT22;21230;51.170;17.024;2023-06-26T12:32:01;28.70;27.50
35043;DHT22;21230;51.170;17.024;2023-06-26T12:34:31;28.80;28.20
35043;DHT22;21230;51.170;17.024;2023-06-26T12:37:04;28.80;28.80
35043;DHT22;21230;51.170;17.024;2023-06-26T12:39:29;28.80;28.30
35043;DHT22;21230;51.170;17.024;2023-06-26T12:42:13;28.80;26.40
35043;DHT22;21230;51.170;17.024;2023-06-26T12:44:38;28.90;27.60
35043;DHT22;21230;51.170;17.024;2023-06-26T12:47:04;28.60;27.00
35043;DHT22;21230;51.170;17.024;2023-06-26T12:49:35;28.60;30.00
35043;DHT22;21230;51.170;17.024;2023-06-26T12:52:03;28.60;28.50
35043;DHT22;21230;51.170;17.024;2023-06-26T12:54:29;28.70;28.50
35043;DHT22;21230;51.170;17.024;2023-06-26T12:56:55;28.80;28.60
35043;DHT22;21230;51.170;17.024;2023-06-26T12:59:21;28.90;27.70
35043;DHT22;21230;51.170;17.024;2023-06-26T13:01:47;29.10;27.70
35043;DHT22;21230;51.170;17.024;2023-06-26T13:04:13;29.00;26.40
35043;DHT22;21230;51.170;17.024;2023-06-26T13:06:39;29.10;27.70
35043;DHT22;21230;51.170;17.024;2023-06-26T13:09:04;29.00;28.80
35043;DHT22;21230;51.170;17.024;2023-06-26T13:11:33;29.00;28.10
35043;DHT22;21230;51.170;17.024;2023-06-26T13:14:00;28.80;26.90
35043;DHT22;21230;51.170;17.024;2023-06-26T13:16:25;28.50;25.80
35043;DHT22;21230;51.170;17.024;2023-06-26T13:18:51;28.20;26.10
35043;DHT22;21230;51.170;17.024;2023-06-26T13:21:17;28.10;26.00
35043;DHT22;21230;51.170;17.024;2023-06-26T13:23:43;28.10;27.50
35043;DHT22;21230;51.170;17.024;2023-06-26T13:26:09;28.10;28.10
35043;DHT22;21230;51.170;17.024;2023-06-26T13:28:35;28.20;28.10
35043;DHT22;21230;51.170;17.024;2023-06-26T13:31:01;28.30;28.30
35043;DHT22;21230;51.170;17.024;2023-06-26T13:33:27;28.10;27.60
35043;DHT22;21230;51.170;17.024;2023-06-26T13:35:53;28.10;26.70
35043;DHT22;21230;51.170;17.024;2023-06-26T13:38:20;28.10;25.90
35043;DHT22;21230;51.170;17.024;2023-06-26T13:40:55;28.30;30.10
35043;DHT22;21230;51.170;17.024;2023-06-26T13:43:22;28.50;29.40
35043;DHT22;21230;51.170;17.024;2023-06-26T13:45:48;28.60;27.50
35043;DHT22;21230;51.170;17.024;2023-06-26T13:48:14;28.50;26.20
35043;DHT22;21230;51.170;17.024;2023-06-26T13:50:40;28.50;25.40
35043;DHT22;21230;51.170;17.024;2023-06-26T13:53:05;28.50;26.00
35043;DHT22;21230;51.170;17.024;2023-06-26T13:55:32;28.60;27.50
35043;DHT22;21230;51.170;17.024;2023-06-26T13:57:59;28.60;28.50
35043;DHT22;21230;51.170;17.024;2023-06-26T14:00:27;28.80;29.50
35043;DHT22;21230;51.170;17.024;2023-06-26T14:02:52;28.90;29.20
35043;DHT22;21230;51.170;17.024;2023-06-26T14:05:18;28.90;27.10
35043;DHT22;21230;51.170;17.024;2023-06-26T14:07:47;28.90;27.20
35043;DHT22;21230;51.170;17.024;2023-06-26T14:10:13;29.10;29.90
35043;DHT22;21230;51.170;17.024;2023-06-26T14:12:39;29.20;27.90
35043;DHT22;21230;51.170;17.024;2023-06-26T14:15:05;29.20;26.80
35043;DHT22;21230;51.170;17.024;2023-06-26T14:17:31;29.20;26.70
35043;DHT22;21230;51.170;17.024;2023-06-26T14:19:56;29.10;27.60
35043;DHT22;21230;51.170;17.024;2023-06-26T14:22:22;29.00;27.00
35043;DHT22;21230;51.170;17.024;2023-06-26T14:24:49;29.00;27.80
35043;DHT22;21230;51.170;17.024;2023-06-26T14:27:14;28.90;27.50
35043;DHT22;21230;51.170;17.024;2023-06-26T14:29:40;28.90;28.10
35043;DHT22;21230;51.170;17.024;2023-06-26T14:32:06;29.10;28.40
35043;DHT22;21230;51.170;17.024;2023-06-26T14:34:32;29.10;28.60
35043;DHT22;21230;51.170;17.024;2023-06-26T14:36:57;29.20;29.50
35043;DHT22;21230;51.170;17.024;2023-06-26T14:39:23;29.00;25.40
35043;DHT22;21230;51.170;17.024;2023-06-26T14:41:49;28.90;26.10
35043;DHT22;21230;51.170;17.024;2023-06-26T14:44:14;28.80;27.10
35043;DHT22;21230;51.170;17.024;2023-06-26T14:46:40;28.90;30.60
35043;DHT22;21230;51.170;17.024;2023-06-26T14:49:06;29.00;28.70
35043;DHT22;21230;51.170;17.024;2023-06-26T14:51:31;29.10;29.60
35043;DHT22;21230;51.170;17.024;2023-06-26T14:53:57;29.00;28.30
35043;DHT22;21230;51.170;17.024;2023-06-26T14:56:23;29.10;29.40
35043;DHT22;21230;51.170;17.024;2023-06-26T14:58:49;29.00;29.80
35043;DHT22;21230;51.170;17.024;2023-06-26T15:01:16;29.10;30.70
35043;DHT22;21230;51.170;17.024;2023-06-26T15:03:42;29.10;29.60
35043;DHT22;21230;51.170;17.024;2023-06-26T15:06:08;29.20;29.60
35043;DHT22;21230;51.170;17.024;2023-06-26T15:08:34;29.30;30.30
35043;DHT22;21230;51.170;17.024;2023-06-26T15:11:00;29.10;30.00
35043;DHT22;21230;51.170;17.024;2023-06-26T15:13:26;29.10;30.20
35043;DHT22;21230;51.170;17.024;2023-06-26T15:15:52;28.90;31.50
35043;DHT22;21230;51.170;17.024;2023-06-26T15:18:17;29.10;31.10
35043;DHT22;21230;51.170;17.024;2023-06-26T15:20:43;29.20;30.20
35043;DHT22;21230;51.170;17.024;2023-06-26T15:23:09;29.40;30.20
35043;DHT22;21230;51.170;17.024;2023-06-26T15:25:34;29.50;31.20
35043;DHT22;21230;51.170;17.024;2023-06-26T15:28:02;29.60;30.00